This is the latest recevied weather packets stored in our database for station/object KF5JED-13. If no packets are shown the sender has not sent any weather packets the latest 10 day(s).
| Time | Temp. | Humidity | Pressure | Rain* | Wind** | Luminosity | Snow |
|---|---|---|---|---|---|---|---|
| 1778303237 | 17.22° C | 40% | 1013.3 hPa | 0 mm | - | 0 W/m² | - |
| 1778302934 | 17.78° C | 40% | 1013.2 hPa | 0 mm | - | 0 W/m² | - |
| 1778302631 | 18.33° C | 39% | 1013.1 hPa | 0 mm | - | 0 W/m² | - |
| 1778302328 | 18.33° C | 38% | 1013.2 hPa | 0 mm | - | 0 W/m² | - |
| 1778302026 | 17.78° C | 39% | 1013.3 hPa | 0 mm | - | 0 W/m² | - |
| 1778301723 | 17.78° C | 39% | 1013.2 hPa | 0 mm | - | 0 W/m² | - |
| 1778301419 | 17.78° C | 40% | 1013.1 hPa | 0 mm | - | 0 W/m² | - |
| 1778301115 | 17.22° C | 39% | 1013.3 hPa | 0 mm | - | 0 W/m² | - |
| 1778300811 | 17.22° C | 40% | 1013.3 hPa | 0 mm | - | 0 W/m² | - |
| 1778300508 | 17.78° C | 40% | 1013.2 hPa | 0 mm | - | 0 W/m² | - |
| 1778300204 | 18.33° C | 38% | 1013.1 hPa | 0 mm | - | 0 W/m² | - |
| 1778299902 | 18.33° C | 38% | 1013.2 hPa | 0 mm | - | 0 W/m² | - |
| 1778299600 | 18.89° C | 38% | 1013.2 hPa | 0 mm | - | 0 W/m² | - |
| 1778299297 | 18.89° C | 37% | 1013.1 hPa | 0 mm | - | 0 W/m² | - |
| 1778298994 | 19.44° C | 37% | 1013.1 hPa | 0 mm | - | 0 W/m² | - |
| 1778298690 | 18.89° C | 37% | 1013 hPa | 0 mm | - | 0 W/m² | - |
| 1778298388 | 18.89° C | 37% | 1013.2 hPa | 0 mm | - | 0 W/m² | - |
| 1778298085 | 19.44° C | 36% | 1013.1 hPa | 0 mm | - | 0 W/m² | - |
| 1778297782 | 18.89° C | 36% | 1013.1 hPa | 0 mm | - | 0 W/m² | - |
| 1778297479 | 18.33° C | 37% | 1013 hPa | 0 mm | - | 0 W/m² | - |
| 1778297176 | 18.89° C | 35% | 1012.9 hPa | 0 mm | - | 0 W/m² | - |
| 1778296873 | 20° C | 35% | 1012.8 hPa | 0 mm | - | 0 W/m² | - |
| 1778296571 | 20° C | 36% | 1012.7 hPa | 0 mm | - | 0 W/m² | - |
| 1778296268 | 19.44° C | 36% | 1012.6 hPa | 0 mm | - | 0 W/m² | - |
| 1778295966 | 18.33° C | 37% | 1012.9 hPa | 0 mm | - | 0 W/m² | - |
* Rain latest hour (hover to see other rain measurements)
** Current wind speed in m/s (hover to see current wind gust speed)